Startpagina
METAR-TAF:

METAR-TAF

Vliegvelden :

Córdoba, Argentinië

breedte: 31-19S, lengte: 064-13W, hoogte: 484 m

Actueel weer

Dit bericht is 56 minuten geleden gemaakt, om 12:00 UTC
Wind 5 kt uit het westnoordwesten
Temperatuur 7°C
Vochtigheid 81%
Druk 1023 hPa
Zicht 10 km of meer
geen wolken onder 1500 m en geen cumulonimbus

METAR: SACO 261200Z 29005KT CAVOK 07/04 Q1023

Tijdstip: 09:56 (12:56 UTC)

Verwachting

Dit bericht is 1 uur en het 56 minuten geleden gemaakt, om 11:00 UTC
Verwachting geldig van 26 om 12 UTC tot 27 om 12 UTC
Wind 10 kt uit het zuiden
Zicht 10 km of meer
Verspreide wolken op 4000 ft
Wijzigt naar
van 26 om 23 UTC tot 27 om 02 UTC
Wind 3 kt uit variabele richting
Zicht 10 km of meer
geen wolken onder 1500 m en geen cumulonimbus

TAF: SACO 261100Z 2612/2712 18010KT 9999 SCT040 TX17/2618Z TN04/2710Z BECMG 2623/2702 VRB03KT CAVOK

Waarnemingen en weersverwachtingen van meer dan 4000 vliegvelden (METAR en TAF).

De beschikbare stations zijn de gele en rode punten op de kaart.

Ga met uw muis naar het station om de naam te zien.

Klik dan om waarnemingen en weersverwachtingen te zien.

kaart wijzigen: klik op de groene knoppen met een zwart kruis om in te zoomen, op de groene knop met een streepje om uit te zoomen of op de groene pijlen voor aangrenzende kaarten.


METAR-TAF: